createdAt,value
2018-07-14T00:01:00.766Z,21.81
2018-07-14T00:03:30.349Z,21.78
2018-07-14T00:05:59.488Z,21.72
2018-07-14T00:08:28.559Z,21.69
2018-07-14T00:10:57.683Z,21.65
2018-07-14T00:13:26.785Z,21.59
2018-07-14T00:15:55.852Z,21.63
2018-07-14T00:18:24.967Z,21.56
2018-07-14T00:20:54.046Z,21.50
2018-07-14T00:23:23.096Z,21.52
2018-07-14T00:25:57.532Z,21.54
2018-07-14T00:28:26.597Z,21.50
2018-07-14T00:30:55.741Z,21.40
2018-07-14T00:33:24.800Z,21.45
2018-07-14T00:35:53.845Z,21.39
2018-07-14T00:38:23.237Z,21.43
2018-07-14T00:40:52.341Z,21.36
2018-07-14T00:43:21.460Z,21.36
2018-07-14T00:45:50.556Z,21.28
2018-07-14T00:48:19.662Z,21.30
2018-07-14T00:50:48.786Z,21.26
2018-07-14T00:53:17.854Z,21.18
2018-07-14T00:55:46.924Z,21.13
2018-07-14T00:58:15.994Z,21.10
2018-07-14T01:00:45.077Z,21.09
2018-07-14T01:03:14.111Z,21.06
2018-07-14T01:05:43.245Z,21.08
2018-07-14T01:08:12.283Z,21.02
2018-07-14T01:10:41.724Z,20.96
2018-07-14T01:13:10.855Z,20.93
2018-07-14T01:15:39.928Z,20.92
2018-07-14T01:18:09.052Z,20.91
2018-07-14T01:20:38.125Z,20.88
2018-07-14T01:23:07.176Z,20.84
2018-07-14T01:25:36.264Z,20.81
2018-07-14T01:28:05.573Z,20.78
2018-07-14T01:30:34.678Z,20.73
2018-07-14T01:33:03.720Z,20.66
2018-07-14T01:35:32.833Z,20.68
2018-07-14T01:38:01.898Z,20.63
2018-07-14T01:40:30.968Z,20.63
2018-07-14T01:43:00.054Z,20.63
2018-07-14T01:45:29.118Z,20.56
2018-07-14T01:47:58.224Z,20.50
2018-07-14T01:50:27.285Z,20.44
2018-07-14T01:52:56.353Z,20.40
2018-07-14T01:55:25.417Z,20.36
2018-07-14T01:57:54.544Z,20.38
2018-07-14T02:00:23.621Z,20.29
2018-07-14T02:02:52.678Z,20.28
2018-07-14T02:05:21.772Z,20.28
2018-07-14T02:07:50.832Z,20.27
2018-07-14T02:10:19.954Z,20.21
2018-07-14T02:12:49.002Z,20.21
2018-07-14T02:15:18.110Z,20.23
2018-07-14T02:17:47.212Z,20.17
2018-07-14T02:20:16.262Z,20.13
2018-07-14T02:22:45.369Z,20.09
2018-07-14T02:25:32.306Z,20.08
2018-07-14T02:28:03.648Z,20.03
2018-07-14T02:30:32.733Z,20.05
2018-07-14T02:33:01.820Z,20.01
2018-07-14T02:35:30.878Z,20.02
2018-07-14T02:37:59.964Z,19.96
2018-07-14T02:40:29.057Z,19.97
2018-07-14T02:42:58.126Z,19.89
2018-07-14T02:45:27.197Z,19.87
2018-07-14T02:47:56.258Z,19.91
2018-07-14T02:50:25.346Z,19.86
2018-07-14T02:52:54.640Z,19.80
2018-07-14T02:55:23.895Z,19.74
2018-07-14T02:57:52.935Z,19.68
2018-07-14T03:00:22.012Z,19.68
2018-07-14T03:02:51.151Z,19.61
2018-07-14T03:05:20.226Z,19.60
2018-07-14T03:07:49.281Z,19.62
2018-07-14T03:10:18.403Z,19.60
2018-07-14T03:12:47.526Z,19.57
2018-07-14T03:15:16.637Z,19.54
2018-07-14T03:17:46.113Z,19.48
2018-07-14T03:20:15.240Z,19.46
2018-07-14T03:22:44.419Z,19.44
2018-07-14T03:25:13.516Z,19.46
2018-07-14T03:27:42.635Z,19.41
2018-07-14T03:30:11.753Z,19.37
2018-07-14T03:32:40.838Z,19.34
2018-07-14T03:35:09.949Z,19.36
2018-07-14T03:37:39.020Z,19.31
2018-07-14T03:40:08.531Z,19.31
2018-07-14T03:42:38.476Z,19.27
2018-07-14T03:45:07.726Z,19.21
2018-07-14T03:47:37.021Z,19.22
2018-07-14T03:50:06.543Z,19.22
2018-07-14T03:52:36.039Z,19.18
2018-07-14T03:55:06.251Z,19.18
2018-07-14T03:57:35.324Z,19.20
2018-07-14T04:00:04.664Z,19.19
2018-07-14T04:02:33.842Z,19.18
2018-07-14T04:05:02.966Z,19.16
2018-07-14T04:07:32.817Z,19.15
2018-07-14T04:10:01.937Z,19.17
2018-07-14T04:12:31.002Z,19.18
2018-07-14T04:15:00.120Z,19.18
2018-07-14T04:17:29.278Z,19.20
2018-07-14T04:19:58.370Z,19.22
2018-07-14T04:22:27.427Z,19.18
2018-07-14T04:24:56.531Z,19.12
2018-07-14T04:27:25.636Z,19.21
2018-07-14T04:29:54.717Z,19.22
2018-07-14T04:32:23.817Z,19.23
2018-07-14T04:34:52.929Z,19.22
2018-07-14T04:37:22.028Z,19.22
2018-07-14T04:39:51.110Z,19.20
2018-07-14T04:42:20.307Z,19.25
2018-07-14T04:44:49.356Z,19.22
2018-07-14T04:47:18.458Z,19.24
2018-07-14T04:49:47.552Z,19.29
2018-07-14T04:52:16.678Z,19.31
2018-07-14T04:54:45.737Z,19.36
2018-07-14T04:57:14.815Z,19.30
2018-07-14T04:59:43.919Z,19.36
2018-07-14T05:02:13.053Z,19.35
2018-07-14T05:04:42.139Z,19.33
2018-07-14T05:07:11.208Z,19.35
2018-07-14T05:09:40.326Z,19.36
2018-07-14T05:12:09.574Z,19.36
2018-07-14T05:14:38.637Z,19.36
2018-07-14T05:17:07.715Z,19.42
2018-07-14T05:19:37.085Z,19.38
2018-07-14T05:22:08.049Z,19.45
2018-07-14T05:24:37.144Z,19.47
2018-07-14T05:27:06.615Z,19.52
2018-07-14T05:29:35.695Z,19.54
2018-07-14T05:32:04.846Z,19.55
2018-07-14T05:34:33.931Z,19.59
2018-07-14T05:37:02.992Z,19.65
2018-07-14T05:39:32.101Z,19.69
2018-07-14T05:42:01.158Z,19.68
2018-07-14T05:44:30.306Z,19.69
2018-07-14T05:46:59.376Z,19.70
2018-07-14T05:49:28.524Z,19.72
2018-07-14T05:51:57.755Z,19.81
2018-07-14T05:54:26.816Z,19.82
2018-07-14T05:56:55.907Z,19.87
2018-07-14T05:59:25.022Z,19.90
2018-07-14T06:01:54.130Z,19.96
2018-07-14T06:04:23.193Z,20.02
2018-07-14T06:06:52.308Z,20.13
2018-07-14T06:09:21.381Z,20.08
2018-07-14T06:11:50.464Z,20.09
2018-07-14T06:14:19.792Z,20.16
2018-07-14T06:16:48.879Z,20.14
2018-07-14T06:19:17.950Z,20.16
2018-07-14T06:21:47.071Z,20.33
2018-07-14T06:24:16.131Z,20.36
2018-07-14T06:26:45.233Z,20.41
2018-07-14T06:29:14.332Z,20.43
2018-07-14T06:31:43.415Z,20.39
2018-07-14T06:34:12.565Z,20.36
2018-07-14T06:36:41.985Z,20.40
2018-07-14T06:39:11.240Z,20.48
2018-07-14T06:41:40.379Z,20.53
2018-07-14T06:44:09.472Z,20.66
2018-07-14T06:46:38.562Z,20.77
2018-07-14T06:49:07.674Z,20.95
2018-07-14T06:51:36.800Z,21.21
2018-07-14T06:54:06.034Z,21.38
2018-07-14T06:56:35.131Z,21.64
2018-07-14T06:59:04.244Z,21.80
2018-07-14T07:01:33.349Z,21.86
2018-07-14T07:04:03.183Z,21.73
2018-07-14T07:06:32.358Z,21.73
2018-07-14T07:09:01.437Z,21.74
2018-07-14T07:11:31.989Z,21.72
2018-07-14T07:14:01.058Z,21.71
2018-07-14T07:16:31.055Z,21.75
2018-07-14T07:19:00.350Z,21.76
2018-07-14T07:21:29.526Z,21.84
2018-07-14T07:23:59.532Z,21.89
2018-07-14T07:26:28.660Z,21.83
2018-07-14T07:28:57.755Z,21.86
2018-07-14T07:31:26.933Z,21.97
2018-07-14T07:33:56.032Z,21.92
2018-07-14T07:36:25.108Z,21.95
2018-07-14T07:38:54.209Z,21.99
2018-07-14T07:41:24.197Z,22.03
2018-07-14T07:43:53.449Z,22.08
2018-07-14T07:46:22.514Z,22.12
2018-07-14T07:48:51.634Z,22.13
2018-07-14T07:51:21.523Z,22.26
2018-07-14T07:53:50.620Z,22.31
2018-07-14T07:56:19.696Z,22.33
2018-07-14T07:58:49.419Z,22.40
2018-07-14T08:01:18.533Z,22.43
2018-07-14T08:03:47.599Z,22.39
2018-07-14T08:06:17.278Z,22.27
2018-07-14T08:08:46.396Z,22.25
2018-07-14T08:11:16.366Z,22.21
2018-07-14T08:13:45.455Z,22.30
2018-07-14T08:16:15.198Z,22.32
2018-07-14T08:18:44.299Z,22.42
2018-07-14T08:21:13.341Z,22.36
2018-07-14T08:23:42.462Z,22.40
2018-07-14T08:26:11.552Z,22.45
2018-07-14T08:28:40.652Z,22.56
2018-07-14T08:31:09.760Z,22.58
2018-07-14T08:33:38.864Z,22.73
2018-07-14T08:36:07.992Z,22.85
2018-07-14T08:38:37.067Z,22.78
2018-07-14T08:41:06.573Z,22.86
2018-07-14T08:43:35.696Z,22.88
2018-07-14T08:46:04.834Z,22.98
2018-07-14T08:48:33.900Z,23.09
2018-07-14T08:51:03.049Z,23.08
2018-07-14T08:53:32.096Z,23.13
2018-07-14T08:56:01.210Z,23.17
2018-07-14T08:58:30.518Z,23.36
2018-07-14T09:01:00.492Z,23.43
2018-07-14T09:03:29.648Z,23.53
2018-07-14T09:05:58.766Z,23.49
2018-07-14T09:08:27.894Z,23.44
2018-07-14T09:10:57.024Z,23.51
2018-07-14T09:13:26.100Z,23.36
2018-07-14T09:15:55.217Z,23.36
2018-07-14T09:18:24.465Z,23.37
2018-07-14T09:20:53.584Z,23.35
2018-07-14T09:23:22.680Z,23.38
2018-07-14T09:25:51.811Z,23.45
2018-07-14T09:28:20.894Z,23.55
2018-07-14T09:30:50.042Z,23.61
2018-07-14T09:33:19.244Z,23.63
2018-07-14T09:35:48.651Z,23.69
2018-07-14T09:38:17.795Z,23.69
2018-07-14T09:40:46.865Z,23.87
2018-07-14T09:43:15.989Z,24.02
2018-07-14T09:45:45.108Z,24.12
2018-07-14T09:48:14.259Z,24.05
2018-07-14T09:50:43.624Z,24.04
2018-07-14T09:53:12.739Z,24.12
2018-07-14T09:55:41.837Z,24.12
2018-07-14T09:58:10.944Z,24.23
2018-07-14T10:01:11.394Z,24.15
2018-07-14T10:03:40.695Z,24.16
2018-07-14T10:06:09.779Z,24.13
2018-07-14T10:08:39.225Z,24.13
2018-07-14T10:11:08.317Z,24.21
2018-07-14T10:13:37.430Z,24.31
2018-07-14T10:16:06.525Z,24.49
2018-07-14T10:18:35.717Z,24.44
2018-07-14T10:21:04.848Z,24.46
2018-07-14T10:23:33.969Z,24.65
2018-07-14T10:26:03.023Z,24.61
2018-07-14T10:28:32.151Z,24.71
2018-07-14T10:31:01.300Z,24.87
2018-07-14T10:33:30.389Z,24.83
2018-07-14T10:35:59.588Z,24.89
2018-07-14T10:38:28.698Z,25.01
2018-07-14T10:40:57.841Z,24.99
2018-07-14T10:43:26.911Z,25.02
2018-07-14T10:45:56.045Z,25.16
2018-07-14T10:48:25.177Z,25.12
2018-07-14T10:50:54.264Z,25.09
2018-07-14T10:53:23.408Z,25.15
2018-07-14T10:55:52.484Z,25.26
2018-07-14T10:58:21.598Z,25.21
2018-07-14T11:00:50.733Z,25.09
2018-07-14T11:03:19.848Z,25.18
2018-07-14T11:05:48.935Z,25.27
2018-07-14T11:08:18.022Z,25.50
2018-07-14T11:10:47.082Z,25.52
2018-07-14T11:13:16.222Z,25.50
2018-07-14T11:15:45.284Z,25.51
2018-07-14T11:18:14.357Z,25.69
2018-07-14T11:20:43.449Z,25.77
2018-07-14T11:23:12.532Z,25.87
2018-07-14T11:25:41.640Z,25.76
2018-07-14T11:28:10.760Z,25.82
2018-07-14T11:30:39.921Z,25.95
2018-07-14T11:33:09.014Z,26.14
2018-07-14T11:35:38.152Z,26.29
2018-07-14T11:38:07.278Z,26.40
2018-07-14T11:40:36.387Z,26.42
2018-07-14T11:43:05.813Z,26.28
2018-07-14T11:45:34.894Z,26.33
2018-07-14T11:48:04.056Z,26.37
2018-07-14T11:50:33.143Z,26.40
2018-07-14T11:53:02.293Z,26.51
2018-07-14T11:55:31.360Z,26.77
2018-07-14T11:58:00.552Z,27.76
2018-07-14T12:00:29.669Z,27.80
2018-07-14T12:02:58.713Z,28.46
2018-07-14T12:05:27.822Z,29.17
2018-07-14T12:07:56.869Z,29.49
2018-07-14T12:10:25.963Z,29.11
2018-07-14T12:12:55.096Z,29.06
2018-07-14T12:15:24.199Z,29.16
2018-07-14T12:17:53.295Z,29.04
2018-07-14T12:20:22.671Z,29.79
2018-07-14T12:22:51.814Z,30.01
2018-07-14T12:25:20.907Z,30.24
2018-07-14T12:27:50.045Z,30.20
2018-07-14T12:30:19.212Z,30.17
2018-07-14T12:32:48.280Z,30.38
2018-07-14T12:35:17.347Z,30.79
2018-07-14T12:37:46.456Z,30.48
2018-07-14T12:40:15.547Z,30.45
2018-07-14T12:42:44.620Z,31.09
2018-07-14T12:45:13.718Z,30.69
2018-07-14T12:47:42.781Z,30.36
2018-07-14T12:50:11.963Z,30.01
2018-07-14T12:52:41.037Z,30.08
2018-07-14T12:55:10.121Z,30.66
2018-07-14T12:57:39.221Z,31.21
2018-07-14T13:00:09.041Z,31.89
2018-07-14T13:02:38.528Z,30.95
2018-07-14T13:05:08.021Z,31.32
2018-07-14T13:07:37.216Z,31.37
2018-07-14T13:10:07.410Z,30.86
2018-07-14T13:12:36.810Z,31.06
2018-07-14T13:15:06.359Z,30.94
2018-07-14T13:17:35.613Z,30.99
2018-07-14T13:20:04.881Z,31.26
2018-07-14T13:22:33.980Z,31.53
2018-07-14T13:25:03.062Z,31.54
2018-07-14T13:27:32.177Z,32.19
2018-07-14T13:30:01.279Z,32.45
2018-07-14T13:32:30.407Z,32.16
2018-07-14T13:34:59.462Z,32.90
2018-07-14T13:37:28.525Z,33.38
2018-07-14T13:39:57.820Z,33.28
2018-07-14T13:42:26.869Z,33.15
2018-07-14T13:44:55.991Z,33.32
2018-07-14T13:47:25.087Z,33.57
2018-07-14T13:49:54.168Z,33.61
2018-07-14T13:52:23.433Z,33.37
2018-07-14T13:54:52.544Z,33.01
2018-07-14T13:57:21.621Z,33.28
2018-07-14T13:59:50.683Z,33.71
2018-07-14T14:02:19.831Z,33.69
2018-07-14T14:04:48.926Z,33.25
2018-07-14T14:07:18.054Z,32.44
2018-07-14T14:09:47.145Z,32.41
2018-07-14T14:12:16.204Z,31.99
2018-07-14T14:14:45.297Z,33.02
2018-07-14T14:17:14.481Z,33.34
2018-07-14T14:19:43.588Z,33.18
2018-07-14T14:22:12.688Z,33.10
2018-07-14T14:24:41.791Z,33.26
2018-07-14T14:27:10.915Z,33.02
2018-07-14T14:29:40.387Z,33.17
2018-07-14T14:32:09.467Z,33.05
2018-07-14T14:34:38.524Z,33.41
2018-07-14T14:37:07.744Z,33.40
2018-07-14T14:39:36.802Z,33.39
2018-07-14T14:42:06.874Z,33.38
2018-07-14T14:44:35.917Z,32.88
2018-07-14T14:47:05.088Z,32.55
2018-07-14T14:49:34.153Z,32.85
2018-07-14T14:52:03.282Z,33.00
2018-07-14T14:54:32.372Z,33.34
2018-07-14T14:57:01.508Z,33.89
2018-07-14T14:59:31.380Z,34.29
2018-07-14T15:02:00.586Z,34.31
2018-07-14T15:04:29.791Z,34.51
2018-07-14T15:06:59.063Z,34.39
2018-07-14T15:09:28.229Z,34.18
2018-07-14T15:11:57.353Z,33.53
2018-07-14T15:14:26.501Z,33.00
2018-07-14T15:16:55.636Z,33.02
2018-07-14T15:19:24.748Z,33.38
2018-07-14T15:21:53.835Z,33.36
2018-07-14T15:24:22.919Z,33.34
2018-07-14T15:26:51.992Z,33.43
2018-07-14T15:29:21.134Z,33.21
2018-07-14T15:31:50.170Z,33.36
2018-07-14T15:34:19.239Z,33.30
2018-07-14T15:36:48.379Z,33.46
2018-07-14T15:39:17.487Z,33.23
2018-07-14T15:41:46.531Z,32.53
2018-07-14T15:44:15.615Z,32.53
2018-07-14T15:46:44.728Z,32.15
2018-07-14T15:49:13.807Z,32.03
2018-07-14T15:51:42.946Z,31.99
2018-07-14T15:54:12.053Z,32.14
2018-07-14T15:56:41.172Z,32.17
2018-07-14T15:59:10.249Z,31.89
2018-07-14T16:01:39.344Z,31.77
2018-07-14T16:04:08.416Z,31.51
2018-07-14T16:06:37.507Z,31.28
2018-07-14T16:09:07.411Z,30.84
2018-07-14T16:11:36.573Z,30.63
2018-07-14T16:14:05.691Z,30.39
2018-07-14T16:16:34.786Z,30.29
2018-07-14T16:19:03.943Z,30.17
2018-07-14T16:21:33.019Z,30.04
2018-07-14T16:24:02.088Z,29.85
2018-07-14T16:26:31.365Z,29.76
2018-07-14T16:29:00.430Z,29.47
2018-07-14T16:31:29.535Z,29.31
2018-07-14T16:33:58.596Z,29.25
2018-07-14T16:36:27.715Z,29.22
2018-07-14T16:38:56.813Z,29.24
2018-07-14T16:41:26.589Z,29.20
2018-07-14T16:43:55.690Z,29.06
2018-07-14T16:46:25.946Z,29.06
2018-07-14T16:48:55.089Z,28.94
2018-07-14T16:51:24.215Z,28.91
2018-07-14T16:53:53.317Z,28.82
2018-07-14T16:56:22.442Z,28.80
2018-07-14T16:58:51.571Z,28.72
2018-07-14T17:01:20.645Z,28.64
2018-07-14T17:03:49.742Z,28.59
2018-07-14T17:06:18.841Z,28.53
2018-07-14T17:08:47.925Z,28.50
2018-07-14T17:11:17.053Z,28.25
2018-07-14T17:13:46.121Z,28.27
2018-07-14T17:16:15.194Z,28.19
2018-07-14T17:18:44.313Z,28.10
2018-07-14T17:21:13.390Z,28.00
2018-07-14T17:23:42.463Z,28.03
2018-07-14T17:26:11.503Z,28.04
2018-07-14T17:28:40.650Z,28.00
2018-07-14T17:31:09.779Z,27.95
2018-07-14T17:33:38.868Z,27.87
2018-07-14T17:36:07.955Z,27.92
2018-07-14T17:38:37.064Z,27.82
2018-07-14T17:41:06.142Z,27.80
2018-07-14T17:43:35.210Z,27.76
2018-07-14T17:46:04.292Z,27.66
2018-07-14T17:48:33.371Z,27.57
2018-07-14T17:51:02.479Z,27.47
2018-07-14T17:53:31.536Z,27.47
2018-07-14T17:56:00.621Z,27.44
2018-07-14T17:58:29.793Z,27.43
2018-07-14T18:00:58.902Z,27.42
2018-07-14T18:03:27.953Z,27.33
2018-07-14T18:05:57.059Z,27.30
2018-07-14T18:08:26.111Z,27.20
2018-07-14T18:10:55.159Z,27.14
2018-07-14T18:13:24.261Z,27.16
2018-07-14T18:15:53.495Z,27.15
2018-07-14T18:18:22.596Z,27.10
2018-07-14T18:20:51.709Z,27.16
2018-07-14T18:23:20.760Z,27.14
2018-07-14T18:25:49.893Z,27.08
2018-07-14T18:28:18.946Z,27.06
2018-07-14T18:30:48.014Z,26.96
2018-07-14T18:33:17.123Z,26.96
2018-07-14T18:35:46.302Z,26.94
2018-07-14T18:38:15.376Z,26.93
2018-07-14T18:40:44.530Z,26.87
2018-07-14T18:43:13.598Z,26.87
2018-07-14T18:45:42.804Z,26.82
2018-07-14T18:48:11.869Z,26.76
2018-07-14T18:50:41.010Z,26.62
2018-07-14T18:53:10.181Z,26.50
2018-07-14T18:55:39.401Z,26.39
2018-07-14T18:58:08.583Z,26.32
2018-07-14T19:00:37.926Z,26.25
2018-07-14T19:03:07.304Z,26.22
2018-07-14T19:05:37.078Z,26.18
2018-07-14T19:08:06.626Z,26.23
2018-07-14T19:10:35.856Z,26.21
2018-07-14T19:13:05.101Z,26.17
2018-07-14T19:15:34.528Z,26.25
2018-07-14T19:18:03.831Z,26.14
2018-07-14T19:20:32.974Z,26.04
2018-07-14T19:23:02.107Z,25.98
2018-07-14T19:25:31.140Z,25.93
2018-07-14T19:28:00.224Z,25.88
2018-07-14T19:30:29.351Z,25.84
2018-07-14T19:32:58.445Z,25.79
2018-07-14T19:35:27.565Z,25.74
2018-07-14T19:37:56.636Z,25.70
2018-07-14T19:40:25.713Z,25.66
2018-07-14T19:42:54.806Z,25.59
2018-07-14T19:45:23.892Z,25.55
2018-07-14T19:47:53.273Z,25.49
2018-07-14T19:50:22.414Z,25.41
2018-07-14T19:52:52.163Z,25.37
2018-07-14T19:55:21.276Z,25.34
2018-07-14T19:57:50.360Z,25.36
2018-07-14T20:00:19.412Z,25.28
2018-07-14T20:02:50.422Z,25.24
2018-07-14T20:05:19.520Z,25.19
2018-07-14T20:07:49.682Z,25.13
2018-07-14T20:10:18.709Z,25.05
2018-07-14T20:12:47.892Z,24.99
2018-07-14T20:15:16.995Z,24.98
2018-07-14T20:17:46.101Z,24.89
2018-07-14T20:20:15.203Z,24.84
2018-07-14T20:22:44.237Z,24.78
2018-07-14T20:25:13.314Z,24.78
2018-07-14T20:27:42.378Z,24.67
2018-07-14T20:30:11.524Z,24.59
2018-07-14T20:32:40.549Z,24.53
2018-07-14T20:35:09.788Z,24.49
2018-07-14T20:37:38.861Z,24.42
2018-07-14T20:40:07.976Z,24.41
2018-07-14T20:42:37.023Z,24.40
2018-07-14T20:45:06.187Z,24.33
2018-07-14T20:47:35.395Z,24.28
2018-07-14T20:50:04.645Z,24.23
2018-07-14T20:52:33.725Z,24.21
2018-07-14T20:55:03.980Z,24.17
2018-07-14T20:57:33.073Z,24.10
2018-07-14T21:00:02.171Z,24.05
2018-07-14T21:02:31.298Z,24.04
2018-07-14T21:05:00.781Z,24.01
2018-07-14T21:07:29.923Z,23.97
2018-07-14T21:10:00.766Z,23.92
2018-07-14T21:32:04.999Z,23.40
2018-07-14T21:34:34.083Z,23.33
2018-07-14T21:37:03.158Z,23.27
2018-07-14T21:39:32.235Z,23.32
2018-07-14T21:42:01.286Z,23.25
2018-07-14T21:44:30.509Z,23.21
2018-07-14T21:46:59.570Z,23.19
2018-07-14T21:49:28.667Z,23.12
2018-07-14T21:51:57.739Z,23.11
2018-07-14T21:54:26.822Z,23.04
2018-07-14T21:56:55.931Z,23.00
2018-07-14T21:59:25.019Z,22.94
2018-07-14T22:01:54.147Z,22.89
2018-07-14T22:04:23.173Z,22.86
2018-07-14T22:06:52.512Z,22.89
2018-07-14T22:09:21.586Z,22.83
2018-07-14T22:11:50.713Z,22.75
2018-07-14T22:14:19.794Z,22.69
2018-07-14T22:16:48.838Z,22.64
2018-07-14T22:19:17.923Z,22.60
2018-07-14T22:21:47.000Z,22.56
2018-07-14T22:24:16.133Z,22.59
2018-07-14T22:26:45.171Z,22.50
2018-07-14T22:29:14.262Z,22.45
2018-07-14T22:31:43.351Z,22.39
2018-07-14T22:34:12.411Z,22.35
2018-07-14T22:36:43.076Z,22.32
2018-07-14T22:39:12.122Z,22.31
2018-07-14T22:41:46.957Z,22.29
2018-07-14T22:44:16.245Z,22.26
2018-07-14T22:46:45.293Z,22.23
2018-07-14T22:49:14.376Z,22.18
2018-07-14T22:51:43.449Z,22.22
2018-07-14T22:54:13.025Z,22.15
2018-07-14T22:56:42.094Z,22.09
2018-07-14T22:59:11.149Z,22.17
2018-07-14T23:01:40.238Z,22.10
2018-07-14T23:04:09.339Z,22.03
2018-07-14T23:06:38.371Z,21.98
2018-07-14T23:09:07.894Z,21.93
2018-07-14T23:11:37.157Z,21.89
2018-07-14T23:14:06.254Z,21.97
2018-07-14T23:16:35.328Z,21.87
2018-07-14T23:19:04.411Z,21.81
2018-07-14T23:21:33.533Z,21.75
2018-07-14T23:24:02.620Z,21.77
2018-07-14T23:26:31.691Z,21.77
2018-07-14T23:29:00.772Z,21.71
2018-07-14T23:31:29.855Z,21.67
2018-07-14T23:33:58.919Z,21.62
2018-07-14T23:36:27.996Z,21.62
2018-07-14T23:38:57.067Z,21.57
2018-07-14T23:41:26.140Z,21.52
2018-07-14T23:43:55.272Z,21.48
2018-07-14T23:46:24.523Z,21.45
2018-07-14T23:48:53.616Z,21.42
2018-07-14T23:51:22.659Z,21.37
2018-07-14T23:53:51.736Z,21.33
2018-07-14T23:56:20.863Z,21.34
2018-07-14T23:58:49.916Z,21.36
